createdAt,value
2018-12-05T02:39:34.486Z,95.42
2018-12-05T02:42:03.895Z,95.73
2018-12-05T02:44:33.129Z,95.33
2018-12-05T02:47:02.362Z,94.52
2018-12-05T02:49:31.726Z,95.42
2018-12-05T02:52:00.960Z,95.47
2018-12-05T02:54:30.343Z,94.80
2018-12-05T02:56:59.753Z,94.55
2018-12-05T02:59:29.270Z,95.18
2018-12-05T03:01:58.598Z,94.73
2018-12-05T03:04:27.806Z,95.07
2018-12-05T03:06:57.084Z,94.96
2018-12-05T03:09:26.399Z,95.03
2018-12-05T03:11:55.618Z,94.57
2018-12-05T03:14:24.833Z,94.41
2018-12-05T03:16:54.085Z,94.33
2018-12-05T03:19:23.386Z,94.39
2018-12-05T03:21:52.604Z,94.79
2018-12-05T03:24:21.865Z,94.35
2018-12-05T03:26:51.158Z,94.37
2018-12-05T03:29:20.547Z,94.99
2018-12-05T03:31:49.791Z,94.79
2018-12-05T03:34:19.079Z,95.08
2018-12-05T03:36:48.321Z,95.23
2018-12-05T03:39:17.725Z,94.75
2018-12-05T03:41:47.058Z,95.02
2018-12-05T03:44:16.294Z,95.13
2018-12-05T03:46:45.512Z,94.33
2018-12-05T03:49:15.439Z,94.26
2018-12-05T03:51:45.268Z,94.49
2018-12-05T03:54:14.495Z,95.05
2018-12-05T03:56:43.698Z,94.96
2018-12-05T03:59:13.024Z,94.64
2018-12-05T04:01:42.269Z,94.28
2018-12-05T04:04:11.487Z,94.47
2018-12-05T04:06:40.784Z,94.87
2018-12-05T04:09:10.127Z,94.55
2018-12-05T04:11:39.707Z,94.54
2018-12-05T04:14:09.108Z,95.27
2018-12-05T04:16:38.453Z,95.08
2018-12-05T04:19:07.757Z,94.45
2018-12-05T04:21:37.063Z,95.07
2018-12-05T04:24:06.485Z,94.45
2018-12-05T04:26:35.947Z,95.16
2018-12-05T04:29:05.261Z,95.21
2018-12-05T04:31:34.539Z,94.94
2018-12-05T04:34:03.943Z,95.20
2018-12-05T04:36:33.178Z,94.83
2018-12-05T04:39:02.507Z,94.65
2018-12-05T04:41:31.694Z,95.11
2018-12-05T04:44:02.048Z,95.22
2018-12-05T04:46:31.809Z,94.92
2018-12-05T04:49:03.613Z,94.35
2018-12-05T04:51:32.806Z,94.62
2018-12-05T04:54:02.129Z,95.16
2018-12-05T04:56:31.408Z,94.52
2018-12-05T04:59:00.744Z,95.22
2018-12-05T05:01:30.126Z,94.50
2018-12-05T05:03:59.449Z,95.15
2018-12-05T05:06:28.684Z,95.19
2018-12-05T05:08:57.942Z,95.14
2018-12-05T05:11:27.240Z,95.14
2018-12-05T05:13:56.583Z,95.06
2018-12-05T05:16:25.842Z,94.71
2018-12-05T05:18:55.423Z,94.54
2018-12-05T05:21:24.723Z,94.34
2018-12-05T05:23:53.951Z,94.34
2018-12-05T05:26:23.258Z,94.50
2018-12-05T05:28:52.982Z,94.86
2018-12-05T05:31:23.774Z,95.08
2018-12-05T05:33:53.198Z,94.78
2018-12-05T05:36:23.519Z,95.39
2018-12-05T05:38:52.747Z,95.28
2018-12-05T05:41:21.960Z,94.42
2018-12-05T05:43:51.455Z,94.73
2018-12-05T05:46:20.775Z,95.00
2018-12-05T05:48:50.013Z,95.16
2018-12-05T05:51:19.227Z,94.51
2018-12-05T05:53:48.633Z,94.62
2018-12-05T05:56:17.912Z,94.59
2018-12-05T05:58:47.212Z,94.71
2018-12-05T06:01:16.541Z,94.85
2018-12-05T06:03:45.844Z,94.61
2018-12-05T06:06:15.063Z,95.05
2018-12-05T06:08:44.392Z,94.45
2018-12-05T06:11:13.603Z,94.67
2018-12-05T06:13:42.807Z,95.33
2018-12-05T06:16:12.017Z,94.92
2018-12-05T06:18:41.334Z,95.21
2018-12-05T06:21:10.598Z,94.54
2018-12-05T06:23:39.803Z,94.58
2018-12-05T06:26:09.035Z,94.94
2018-12-05T06:28:38.235Z,94.40
2018-12-05T06:31:07.536Z,94.92
2018-12-05T06:33:36.815Z,94.82
2018-12-05T06:36:06.160Z,95.08
2018-12-05T06:38:35.401Z,95.10
2018-12-05T06:41:04.619Z,94.40
2018-12-05T06:43:33.832Z,95.06
2018-12-05T06:46:03.277Z,94.42
2018-12-05T06:48:32.479Z,94.83
2018-12-05T06:51:01.769Z,94.61
2018-12-05T06:53:30.976Z,94.21
2018-12-05T06:56:00.209Z,94.60
2018-12-05T06:58:28.531Z,94.42
2018-12-05T07:00:57.755Z,94.63
2018-12-05T07:03:27.116Z,94.10
2018-12-05T07:05:56.657Z,94.08
2018-12-05T07:08:25.913Z,94.48
2018-12-05T07:10:55.173Z,94.81
2018-12-05T07:13:24.383Z,93.71
2018-12-05T07:15:53.596Z,94.42
2018-12-05T07:18:22.827Z,94.61
2018-12-05T07:20:52.039Z,94.61
2018-12-05T07:23:21.247Z,94.39
2018-12-05T07:25:50.538Z,94.40
2018-12-05T07:28:19.738Z,94.24
2018-12-05T07:30:48.950Z,94.00
2018-12-05T07:33:18.158Z,94.03
2018-12-05T07:35:47.355Z,94.00
2018-12-05T07:38:19.606Z,94.34
2018-12-05T07:40:47.910Z,94.25
2018-12-05T07:43:17.273Z,94.37
2018-12-05T07:45:46.489Z,94.41
2018-12-05T07:48:15.674Z,94.28
2018-12-05T07:50:44.984Z,94.24
2018-12-05T07:53:14.195Z,93.96
2018-12-05T07:55:43.441Z,94.71
2018-12-05T07:58:12.726Z,94.60
2018-12-05T08:00:41.954Z,93.72
2018-12-05T08:03:11.155Z,94.21
2018-12-05T08:05:40.470Z,94.63
2018-12-05T08:08:09.700Z,93.99
2018-12-05T08:10:38.908Z,94.72
2018-12-05T08:13:08.126Z,93.81
2018-12-05T08:15:37.342Z,94.08
2018-12-05T08:18:06.807Z,94.07
2018-12-05T08:20:36.031Z,94.90
2018-12-05T08:23:05.301Z,94.37
2018-12-05T08:25:34.680Z,93.86
2018-12-05T08:28:03.891Z,94.85
2018-12-05T08:30:33.094Z,94.16
2018-12-05T08:33:02.278Z,94.13
2018-12-05T08:35:31.486Z,94.16
2018-12-05T08:38:00.771Z,94.14
2018-12-05T08:40:30.043Z,93.69
2018-12-05T08:42:59.239Z,94.41
2018-12-05T08:45:28.656Z,94.36
2018-12-05T08:47:57.913Z,94.05
2018-12-05T08:50:27.288Z,93.22
2018-12-05T08:52:56.574Z,93.79
2018-12-05T08:55:25.778Z,92.51
2018-12-05T08:57:55.058Z,93.37
2018-12-05T09:00:23.457Z,93.34
2018-12-05T09:02:52.682Z,93.46
2018-12-05T09:05:21.887Z,93.08
2018-12-05T09:07:51.150Z,94.05
2018-12-05T09:10:20.449Z,94.21
2018-12-05T09:12:49.654Z,93.74
2018-12-05T09:15:18.998Z,94.01
2018-12-05T09:17:48.223Z,93.99
2018-12-05T09:20:17.522Z,92.79
2018-12-05T09:22:46.728Z,93.13
2018-12-05T09:25:15.937Z,94.36
2018-12-05T09:27:45.154Z,93.71
2018-12-05T09:30:14.394Z,93.76
2018-12-05T09:32:43.612Z,93.46
2018-12-05T09:39:47.781Z,92.42
2018-12-05T09:42:17.014Z,92.10
2018-12-05T09:44:46.220Z,91.42
2018-12-05T09:47:16.046Z,91.74
2018-12-05T09:49:45.714Z,91.13
2018-12-05T09:52:14.941Z,91.85
2018-12-05T09:54:44.134Z,91.26
2018-12-05T09:57:13.364Z,91.92
2018-12-05T09:59:42.559Z,91.40
2018-12-05T10:02:11.774Z,91.89
2018-12-05T10:04:40.981Z,92.15
2018-12-05T10:07:10.269Z,91.37
2018-12-05T10:09:39.488Z,91.52
2018-12-05T10:12:08.785Z,91.21
2018-12-05T10:14:38.066Z,91.38
2018-12-05T10:17:07.354Z,91.13
2018-12-05T10:19:36.562Z,91.99
2018-12-05T10:22:05.863Z,91.74
2018-12-05T10:24:35.162Z,91.84
2018-12-05T10:27:04.465Z,91.91
2018-12-05T10:29:33.742Z,91.89
2018-12-05T10:32:02.975Z,90.79
2018-12-05T10:34:32.178Z,91.37
2018-12-05T10:37:01.479Z,91.62
2018-12-05T10:39:30.870Z,90.98
2018-12-05T10:42:00.073Z,90.89
2018-12-05T10:44:29.306Z,91.44
2018-12-05T10:46:58.565Z,90.80
2018-12-05T10:49:28.827Z,90.69
2018-12-05T10:51:58.182Z,90.31
2018-12-05T10:54:28.097Z,89.49
2018-12-05T10:56:57.346Z,90.14
2018-12-05T10:59:26.591Z,90.08
2018-12-05T11:02:01.099Z,90.78
2018-12-05T11:04:35.577Z,91.04
2018-12-05T11:07:12.226Z,90.69
2018-12-05T11:09:46.948Z,89.35
2018-12-05T11:12:21.372Z,89.49
2018-12-05T11:14:56.506Z,90.87
2018-12-05T11:17:31.425Z,90.02
2018-12-05T11:20:05.859Z,89.64
2018-12-05T11:22:40.518Z,90.55
2018-12-05T16:40:08.355Z,93.63
2018-12-05T16:42:37.714Z,94.21
2018-12-05T16:45:08.080Z,92.92
2018-12-05T16:47:37.274Z,92.85
2018-12-05T16:50:07.186Z,93.23
2018-12-05T16:52:36.654Z,92.87
2018-12-05T16:55:06.183Z,92.13
2018-12-05T16:57:35.396Z,93.08
2018-12-05T17:00:05.805Z,92.55
2018-12-05T17:02:35.089Z,92.10
2018-12-05T17:05:04.970Z,92.62
2018-12-05T17:07:34.260Z,92.86
2018-12-05T17:10:03.675Z,92.53
2018-12-05T17:12:32.895Z,92.92
2018-12-05T17:15:02.163Z,92.28
2018-12-05T17:17:31.455Z,92.18
2018-12-05T17:20:00.697Z,92.76
2018-12-05T17:22:29.998Z,91.83
2018-12-05T17:24:59.307Z,91.77
2018-12-05T17:27:28.545Z,91.89
2018-12-05T17:29:57.932Z,92.83
2018-12-05T17:32:27.137Z,91.93
2018-12-05T17:34:56.410Z,92.02
2018-12-05T17:37:25.676Z,91.25
2018-12-05T17:39:54.888Z,91.59
2018-12-05T17:42:24.137Z,90.59
2018-12-05T17:44:54.282Z,90.46
2018-12-05T17:47:23.614Z,90.82
2018-12-05T17:49:52.912Z,90.89
2018-12-05T17:52:22.142Z,90.76
2018-12-05T17:54:51.951Z,91.49
2018-12-05T17:57:21.217Z,91.06
2018-12-05T17:59:50.617Z,90.68
2018-12-05T18:02:19.945Z,89.91
2018-12-05T18:04:49.278Z,90.01
2018-12-05T18:07:18.623Z,89.78
2018-12-05T18:09:48.013Z,90.11
2018-12-05T18:12:17.247Z,89.66
2018-12-05T18:14:46.490Z,89.82
2018-12-05T18:17:15.727Z,90.17
2018-12-05T18:19:45.081Z,90.23
2018-12-05T18:22:14.331Z,90.25
2018-12-05T18:24:43.737Z,90.16
2018-12-05T18:27:13.010Z,89.46
2018-12-05T18:29:42.257Z,88.52
2018-12-05T18:32:11.533Z,87.89
2018-12-05T18:34:40.785Z,88.98
